Time;durP1;ratioP1;P1;durP2;ratioP2;P2;SDS_P1;SDS_P2;PMS_P1;PMS_P2;Temp;Humidity;BMP_temperature;BMP_pressure;BME280_temperature;BME280_humidity;BME280_pressure;Samples;Min_cycle;Max_cycle;Signal;HPM_P1;HPM_P2
2023/03/18 00:00:12;;;;;;;166.57;88.75;;;26.60;99.90;;;;;;5075170;28;20032;-67
2023/03/18 00:02:40;;;;;;;147.77;86.43;;;26.50;99.90;;;;;;5074001;28;20378;-67
2023/03/18 00:05:09;;;;;;;149.70;95.65;;;26.50;99.90;;;;;;5071870;28;20555;-68
2023/03/18 00:07:36;;;;;;;133.60;85.53;;;26.60;99.90;;;;;;5073603;28;20052;-67
2023/03/18 00:10:04;;;;;;;142.00;90.45;;;26.60;99.90;;;;;;5071119;28;20386;-66
2023/03/18 00:12:32;;;;;;;132.20;78.65;;;26.70;99.90;;;;;;5055170;28;20085;-67
2023/03/18 00:14:59;;;;;;;142.10;90.45;;;26.70;99.90;;;;;;5054858;28;20090;-67
2023/03/18 00:17:26;;;;;;;172.48;115.55;;;26.80;99.90;;;;;;5067837;28;20060;-67
2023/03/18 00:19:53;;;;;;;140.95;86.75;;;26.80;99.90;;;;;;5074965;28;20028;-67
2023/03/18 00:22:20;;;;;;;130.75;76.32;;;27.00;99.90;;;;;;5074680;28;20032;-67
2023/03/18 00:24:47;;;;;;;232.25;152.20;;;27.00;99.90;;;;;;5074794;28;20103;-67
2023/03/18 00:27:14;;;;;;;283.35;173.75;;;27.00;99.90;;;;;;5058126;28;20029;-67
2023/03/18 00:29:40;;;;;;;158.32;93.70;;;27.10;99.90;;;;;;5054598;28;20394;-67
2023/03/18 00:32:07;;;;;;;137.40;73.53;;;27.10;99.90;;;;;;5053721;28;20033;-67
2023/03/18 00:34:34;;;;;;;131.30;74.13;;;27.10;99.90;;;;;;5054555;28;20029;-66
2023/03/18 00:37:00;;;;;;;142.95;75.78;;;27.10;99.90;;;;;;5054525;28;20088;-67
2023/03/18 00:39:31;;;;;;;148.95;81.03;;;27.10;99.90;;;;;;5054701;28;20533;-67
2023/03/18 00:41:58;;;;;;;140.45;78.05;;;27.20;99.90;;;;;;5054446;28;20078;-68
2023/03/18 00:44:25;;;;;;;142.70;76.65;;;27.20;99.90;;;;;;5054238;28;20033;-67
2023/03/18 00:46:51;;;;;;;134.10;72.15;;;27.30;99.90;;;;;;5054673;28;20152;-67
2023/03/18 00:49:18;;;;;;;128.85;68.60;;;27.30;99.90;;;;;;5061695;28;20385;-67
2023/03/18 00:51:46;;;;;;;131.32;72.15;;;27.30;99.90;;;;;;5074100;28;20021;-67
2023/03/18 00:54:16;;;;;;;138.20;69.47;;;27.40;99.90;;;;;;5074251;28;20484;-67
2023/03/18 00:56:43;;;;;;;119.93;64.68;;;27.40;99.90;;;;;;5074452;28;20530;-68
2023/03/18 00:59:10;;;;;;;121.32;64.93;;;27.30;99.90;;;;;;5074053;28;20397;-67
2023/03/18 01:01:37;;;;;;;115.15;63.30;;;27.40;99.90;;;;;;5074096;28;20028;-68
2023/03/18 01:04:05;;;;;;;130.63;68.60;;;27.40;99.90;;;;;;5074398;28;20442;-67
2023/03/18 01:06:34;;;;;;;137.98;74.15;;;27.50;99.90;;;;;;5073924;28;20102;-67
2023/03/18 01:09:03;;;;;;;132.20;73.50;;;27.50;99.90;;;;;;5073493;28;20089;-67
2023/03/18 01:11:30;;;;;;;129.65;71.30;;;27.50;99.90;;;;;;5073740;28;20040;-68
2023/03/18 01:13:58;;;;;;;120.30;67.07;;;27.60;99.90;;;;;;5073585;28;20028;-67
2023/03/18 01:16:24;;;;;;;120.95;68.30;;;27.60;99.90;;;;;;5073884;28;20472;-67
2023/03/18 01:18:52;;;;;;;153.93;87.55;;;27.60;99.90;;;;;;5074113;28;20033;-67
2023/03/18 01:21:19;;;;;;;157.60;86.35;;;27.60;99.90;;;;;;5073722;28;20041;-67
2023/03/18 01:23:45;;;;;;;104.45;59.15;;;27.70;99.90;;;;;;5073721;28;20025;-67
2023/03/18 01:26:12;;;;;;;214.15;108.03;;;27.70;99.90;;;;;;5073755;28;20591;-67
2023/03/18 01:28:39;;;;;;;100.15;56.78;;;27.80;99.90;;;;;;5073479;28;20107;-67
2023/03/18 01:31:06;;;;;;;114.05;65.70;;;27.80;99.90;;;;;;5073599;28;20021;-67
2023/03/18 01:33:34;;;;;;;145.13;79.75;;;27.90;99.90;;;;;;5073564;28;20104;-67
2023/03/18 01:36:03;;;;;;;279.13;143.00;;;28.00;99.90;;;;;;5073292;28;20485;-66
2023/03/18 01:38:30;;;;;;;476.17;278.20;;;28.00;99.90;;;;;;5073496;28;20535;-66
2023/03/18 01:40:58;;;;;;;186.38;115.40;;;28.00;99.90;;;;;;5073486;28;20024;-67
2023/03/18 01:43:38;;;;;;;421.23;274.92;;;28.10;99.90;;;;;;5073037;28;20051;-67
2023/03/18 01:46:37;;;;;;;539.75;360.83;;;28.20;99.90;;;;;;5073710;28;20556;-66
2023/03/18 01:49:11;;;;;;;493.48;292.55;;;28.20;99.90;;;;;;5073351;28;20040;-67
2023/03/18 01:51:40;;;;;;;879.03;563.50;;;28.30;99.90;;;;;;5073251;28;20405;-65
2023/03/18 01:54:08;;;;;;;98.82;55.88;;;28.30;99.90;;;;;;5073254;28;20108;-67
2023/03/18 01:56:37;;;;;;;320.00;162.27;;;28.30;99.90;;;;;;5073586;28;20021;-68
2023/03/18 01:59:06;;;;;;;93.53;48.45;;;28.30;99.90;;;;;;5073561;28;20533;-66
2023/03/18 02:01:41;;;;;;;26.08;14.85;;;28.40;99.90;;;;;;5073368;28;20032;-66
2023/03/18 02:04:09;;;;;;;51.50;24.77;;;28.40;99.90;;;;;;5073365;28;20024;-66
2023/03/18 02:06:37;;;;;;;45.25;24.70;;;28.40;99.90;;;;;;5073012;28;20028;-65
2023/03/18 02:09:04;;;;;;;55.30;32.08;;;28.50;99.90;;;;;;5073119;28;20047;-65
2023/03/18 02:11:35;;;;;;;247.95;143.63;;;28.50;99.90;;;;;;5073427;28;20021;-66
2023/03/18 02:14:03;;;;;;;48.20;25.77;;;28.60;99.90;;;;;;5073160;28;20048;-66
2023/03/18 02:16:37;;;;;;;98.03;60.28;;;28.60;99.90;;;;;;5073490;28;20021;-66
2023/03/18 02:19:22;;;;;;;328.60;221.75;;;28.60;99.90;;;;;;5072889;28;20503;-66
2023/03/18 02:22:02;;;;;;;61.60;34.78;;;28.70;99.90;;;;;;5073430;28;20051;-66
2023/03/18 02:24:47;;;;;;;150.27;78.03;;;28.60;99.90;;;;;;5073325;28;20048;-66
2023/03/18 02:27:26;;;;;;;40.70;23.42;;;28.80;99.90;;;;;;5073015;28;20078;-66
2023/03/18 02:29:56;;;;;;;26.55;17.20;;;28.80;99.90;;;;;;5073066;28;20021;-66
2023/03/18 02:32:27;;;;;;;48.97;23.98;;;28.90;99.90;;;;;;5073067;28;20108;-66
2023/03/18 02:34:55;;;;;;;23.50;9.65;;;28.90;99.90;;;;;;5072878;28;20024;-69
2023/03/18 02:37:22;;;;;;;516.53;304.92;;;29.00;99.90;;;;;;5072894;28;20023;-65
2023/03/18 02:39:48;;;;;;;162.68;78.32;;;29.10;99.90;;;;;;5073059;28;20021;-66
2023/03/18 02:42:17;;;;;;;31.77;16.40;;;29.20;99.90;;;;;;5072763;28;20048;-66
2023/03/18 02:44:45;;;;;;;43.13;22.77;;;29.30;99.90;;;;;;5073356;28;20461;-65
2023/03/18 02:47:20;;;;;;;92.60;42.47;;;29.30;99.90;;;;;;5073377;28;20031;-66
2023/03/18 02:49:46;;;;;;;43.28;21.08;;;29.30;99.90;;;;;;5060195;28;20026;-65
2023/03/18 02:52:13;;;;;;;40.42;19.00;;;29.40;99.90;;;;;;5066015;28;20423;-67
2023/03/18 02:54:40;;;;;;;274.75;136.10;;;29.30;99.90;;;;;;5073861;28;20040;-66
2023/03/18 02:57:06;;;;;;;72.53;36.92;;;29.30;99.90;;;;;;5056370;28;20032;-67
2023/03/18 02:59:33;;;;;;;323.33;162.70;;;29.30;99.90;;;;;;5056587;28;20032;-66
2023/03/18 03:02:00;;;;;;;170.38;80.25;;;29.30;99.90;;;;;;5056549;28;20029;-68
2023/03/18 03:04:27;;;;;;;443.63;168.48;;;29.30;99.90;;;;;;5056483;28;20032;-65
2023/03/18 03:06:56;;;;;;;48.80;26.05;;;29.30;99.90;;;;;;5056593;28;20029;-66
2023/03/18 03:09:22;;;;;;;55.80;22.17;;;29.30;99.90;;;;;;5056015;28;20052;-67
2023/03/18 03:11:50;;;;;;;368.50;143.35;;;29.40;99.90;;;;;;5056032;28;20529;-67
2023/03/18 03:14:16;;;;;;;274.35;93.20;;;29.50;99.90;;;;;;5056476;28;20469;-67
2023/03/18 03:16:43;;;;;;;82.72;30.27;;;29.70;99.90;;;;;;5056828;28;20025;-66
2023/03/18 03:19:10;;;;;;;38.58;17.27;;;29.80;99.90;;;;;;5057719;28;20029;-67
2023/03/18 03:21:36;;;;;;;45.65;20.05;;;29.80;99.90;;;;;;5067022;28;20033;-65
2023/03/18 03:24:04;;;;;;;19.15;10.75;;;29.80;99.90;;;;;;5063669;28;20025;-66
2023/03/18 03:26:32;;;;;;;17.90;8.80;;;29.80;99.90;;;;;;5064577;28;20417;-66
2023/03/18 03:28:59;;;;;;;17.67;10.90;;;29.80;99.90;;;;;;5065675;28;20037;-66
2023/03/18 03:31:26;;;;;;;73.63;27.00;;;29.90;99.90;;;;;;5065724;28;20444;-66
2023/03/18 03:33:53;;;;;;;59.35;21.60;;;29.90;99.90;;;;;;5064602;28;20400;-66
2023/03/18 03:36:19;;;;;;;182.73;64.78;;;30.00;99.90;;;;;;5066534;28;20023;-66
2023/03/18 03:38:46;;;;;;;71.30;26.73;;;30.10;99.90;;;;;;5066841;28;20067;-66
2023/03/18 03:41:14;;;;;;;144.23;53.70;;;30.10;99.90;;;;;;5065424;28;20556;-66
2023/03/18 03:43:41;;;;;;;25.10;11.68;;;30.10;99.90;;;;;;5064451;28;20462;-66
2023/03/18 03:46:09;;;;;;;35.33;18.42;;;30.00;99.90;;;;;;5063564;28;20056;-65
2023/03/18 03:48:36;;;;;;;101.88;38.75;;;30.00;99.90;;;;;;5064524;28;20025;-66
2023/03/18 03:51:03;;;;;;;152.05;60.67;;;30.00;99.90;;;;;;5064855;28;20020;-67
2023/03/18 03:53:31;;;;;;;101.53;39.42;;;30.00;99.90;;;;;;5066222;28;20021;-67
2023/03/18 03:55:58;;;;;;;73.63;30.15;;;30.00;99.90;;;;;;5064567;28;20508;-67
2023/03/18 03:58:26;;;;;;;27.98;12.27;;;30.00;99.90;;;;;;5064460;28;20043;-66
2023/03/18 04:00:52;;;;;;;29.10;16.08;;;30.00;99.90;;;;;;5066111;28;20134;-66
2023/03/18 04:03:19;;;;;;;51.95;21.20;;;30.00;99.90;;;;;;5064539;28;20032;-66
2023/03/18 04:05:46;;;;;;;43.05;17.17;;;30.00;99.90;;;;;;5064185;28;20020;-67
2023/03/18 04:08:13;;;;;;;41.35;18.95;;;30.00;99.90;;;;;;5065538;28;20032;-67
2023/03/18 04:10:39;;;;;;;32.50;14.55;;;30.00;99.90;;;;;;5064502;28;20024;-68
2023/03/18 04:13:06;;;;;;;44.30;19.05;;;30.00;99.90;;;;;;5064014;28;20146;-69
2023/03/18 04:15:33;;;;;;;58.80;27.15;;;30.10;99.90;;;;;;5065767;28;20016;-67
2023/03/18 04:18:05;;;;;;;55.60;24.45;;;30.10;99.90;;;;;;5064461;28;20025;-69
2023/03/18 04:20:34;;;;;;;18.25;10.40;;;30.20;99.90;;;;;;5063451;28;20401;-69
2023/03/18 04:23:01;;;;;;;16.77;9.88;;;30.30;99.90;;;;;;5064656;28;20106;-69
2023/03/18 04:25:28;;;;;;;18.90;10.15;;;30.40;99.90;;;;;;5062579;28;20143;-67
2023/03/18 04:27:55;;;;;;;15.93;8.88;;;30.50;99.90;;;;;;5054899;28;20032;-66
2023/03/18 04:30:24;;;;;;;16.08;9.63;;;30.50;99.90;;;;;;5057656;28;20021;-67
2023/03/18 04:32:51;;;;;;;24.10;11.38;;;30.60;99.90;;;;;;5064737;28;20028;-68
2023/03/18 04:35:18;;;;;;;15.07;9.35;;;30.70;99.90;;;;;;5063325;28;20078;-69
2023/03/18 04:37:45;;;;;;;23.88;11.60;;;30.80;99.90;;;;;;5063309;28;20477;-65
2023/03/18 04:40:12;;;;;;;15.02;9.52;;;30.80;99.90;;;;;;5063667;28;20070;-66
2023/03/18 04:42:39;;;;;;;14.70;9.52;;;30.80;99.90;;;;;;5065201;28;20546;-64
2023/03/18 04:45:07;;;;;;;16.83;9.00;;;30.80;99.90;;;;;;5059684;28;20036;-70
2023/03/18 04:47:34;;;;;;;12.43;7.70;;;30.80;99.90;;;;;;5054312;28;20047;-67
2023/03/18 04:50:03;;;;;;;13.93;8.15;;;30.80;99.90;;;;;;5054327;28;20422;-67
2023/03/18 04:52:30;;;;;;;21.58;9.60;;;30.80;99.90;;;;;;5054648;28;20581;-67
2023/03/18 04:54:57;;;;;;;17.73;9.13;;;30.80;99.90;;;;;;5054179;28;20477;-66
2023/03/18 04:57:23;;;;;;;16.15;8.02;;;30.90;99.90;;;;;;5054444;28;20381;-67
2023/03/18 04:59:50;;;;;;;17.38;8.10;;;31.00;99.90;;;;;;5054206;28;20105;-67
2023/03/18 05:02:17;;;;;;;17.67;8.55;;;31.10;99.90;;;;;;5054016;28;20389;-67
2023/03/18 05:04:44;;;;;;;12.23;7.35;;;31.20;99.90;;;;;;5054079;28;20158;-67
2023/03/18 05:07:14;;;;;;;15.52;8.80;;;31.20;99.90;;;;;;5059118;28;20374;-66
2023/03/18 05:09:42;;;;;;;15.68;8.75;;;31.20;99.90;;;;;;5063222;28;20106;-67
2023/03/18 05:12:13;;;;;;;17.13;9.35;;;31.20;99.90;;;;;;5063400;28;20091;-67
2023/03/18 05:14:42;;;;;;;13.63;8.35;;;31.20;99.90;;;;;;5062387;28;20016;-67
2023/03/18 05:17:14;;;;;;;13.00;8.18;;;31.20;99.90;;;;;;5064548;28;20369;-67
2023/03/18 05:19:46;;;;;;;14.80;8.63;;;31.30;99.90;;;;;;5063768;28;20390;-67
2023/03/18 05:22:14;;;;;;;;;;;31.30;99.90;;;;;;5073386;23;20880;-66
2023/03/18 05:24:44;;;;;;;11.57;7.45;;;31.40;99.90;;;;;;5053961;28;19912;-67
2023/03/18 05:27:13;;;;;;;13.48;7.72;;;31.50;99.90;;;;;;5054066;28;20544;-67
2023/03/18 05:29:41;;;;;;;21.25;8.52;;;31.50;99.90;;;;;;5051521;28;20029;-66
2023/03/18 05:32:09;;;;;;;17.42;8.25;;;31.50;99.90;;;;;;5054131;28;20053;-67
2023/03/18 05:34:38;;;;;;;16.25;7.95;;;31.50;99.90;;;;;;5053697;28;20029;-67
2023/03/18 05:37:06;;;;;;;17.90;8.40;;;31.50;99.90;;;;;;5053638;28;20032;-67
2023/03/18 05:39:34;;;;;;;15.45;8.82;;;31.50;99.90;;;;;;5053699;28;20029;-67
2023/03/18 05:42:03;;;;;;;11.77;6.63;;;31.50;99.90;;;;;;5053792;28;20025;-67
2023/03/18 05:44:31;;;;;;;15.88;6.93;;;31.50;99.90;;;;;;5053583;28;20029;-67
2023/03/18 05:46:58;;;;;;;14.68;6.45;;;31.60;99.90;;;;;;5051093;28;20092;-67
2023/03/18 05:49:26;;;;;;;14.10;6.97;;;31.60;99.90;;;;;;5053505;28;20485;-66
2023/03/18 05:51:53;;;;;;;14.77;7.40;;;31.70;99.90;;;;;;5053216;28;20048;-66
2023/03/18 05:54:19;;;;;;;15.50;7.57;;;31.70;99.90;;;;;;5053508;28;20075;-67
2023/03/18 05:56:46;;;;;;;14.88;7.78;;;31.70;99.90;;;;;;5053471;28;20077;-66
2023/03/18 05:59:14;;;;;;;11.10;7.90;;;31.70;99.90;;;;;;5053150;28;20056;-66
2023/03/18 06:01:41;;;;;;;13.88;7.57;;;31.70;99.90;;;;;;5053487;28;20025;-67
2023/03/18 06:04:09;;;;;;;14.98;7.43;;;31.70;99.90;;;;;;5052090;28;20024;-66
2023/03/18 06:06:39;;;;;;;12.05;7.78;;;31.70;99.90;;;;;;5048294;28;20477;-67
2023/03/18 06:09:07;;;;;;;19.23;8.52;;;31.70;99.90;;;;;;5060526;28;20086;-68
2023/03/18 06:11:33;;;;;;;14.55;8.55;;;31.70;99.90;;;;;;5073463;28;20055;-68
2023/03/18 06:14:00;;;;;;;20.20;11.93;;;31.70;99.90;;;;;;5073021;28;20021;-65
2023/03/18 06:16:27;;;;;;;24.60;14.52;;;31.70;99.90;;;;;;5073058;28;20082;-65
2023/03/18 06:18:54;;;;;;;18.58;11.48;;;31.70;99.90;;;;;;5073141;28;20104;-66
2023/03/18 06:21:20;;;;;;;46.90;35.38;;;31.70;99.90;;;;;;5072855;28;20028;-66
2023/03/18 06:23:47;;;;;;;26.00;14.52;;;31.70;99.90;;;;;;5073047;28;20044;-65
2023/03/18 06:26:14;;;;;;;20.65;13.43;;;31.70;99.90;;;;;;5073004;28;20036;-66
2023/03/18 06:28:40;;;;;;;23.88;16.27;;;31.70;99.90;;;;;;5063953;28;20497;-66
2023/03/18 06:31:07;;;;;;;19.10;10.63;;;31.70;99.90;;;;;;5055360;28;20021;-64
2023/03/18 06:33:34;;;;;;;15.52;7.93;;;31.70;99.90;;;;;;5055122;28;20099;-62
2023/03/18 06:36:01;;;;;;;17.55;10.10;;;31.70;99.90;;;;;;5054379;28;20470;-63
2023/03/18 06:38:27;;;;;;;17.73;10.23;;;31.70;99.90;;;;;;5052131;28;20029;-61
2023/03/18 06:40:55;;;;;;;18.52;9.27;;;31.80;99.90;;;;;;5054883;28;20028;-63
2023/03/18 06:43:22;;;;;;;12.18;7.07;;;31.70;99.90;;;;;;5054818;28;20025;-63
2023/03/18 06:45:49;;;;;;;13.85;7.25;;;31.80;99.90;;;;;;5053049;28;20039;-62
2023/03/18 06:48:16;;;;;;;10.38;6.22;;;31.80;99.90;;;;;;5054997;28;20029;-59
2023/03/18 06:50:43;;;;;;;10.93;6.70;;;31.90;99.90;;;;;;5054139;28;20024;-61
2023/03/18 06:53:11;;;;;;;24.40;15.75;;;32.00;99.90;;;;;;5059611;28;20043;-62
2023/03/18 06:55:38;;;;;;;16.30;9.25;;;32.10;99.90;;;;;;5065169;28;20063;-63
2023/03/18 06:58:05;;;;;;;28.20;21.98;;;32.10;99.90;;;;;;5042183;28;20091;-67
2023/03/18 07:00:33;;;;;;;15.82;9.43;;;32.10;99.90;;;;;;5042419;28;20033;-68
2023/03/18 07:03:00;;;;;;;9.75;7.05;;;32.10;99.90;;;;;;5036165;28;20033;-67
2023/03/18 07:05:27;;;;;;;12.50;6.68;;;32.10;99.90;;;;;;5035639;28;20047;-67
2023/03/18 07:07:54;;;;;;;16.02;7.70;;;32.10;99.90;;;;;;5036017;28;20034;-68
2023/03/18 07:10:24;;;;;;;18.55;10.80;;;32.10;99.90;;;;;;5036095;28;20025;-67
2023/03/18 07:12:51;;;;;;;15.70;8.75;;;32.10;99.90;;;;;;5036012;28;20080;-67
2023/03/18 07:15:21;;;;;;;14.43;8.68;;;32.20;99.90;;;;;;5036141;28;20493;-68
2023/03/18 07:17:49;;;;;;;17.23;10.32;;;32.10;99.90;;;;;;5036041;28;20030;-67
2023/03/18 07:20:16;;;;;;;15.63;8.95;;;32.10;99.90;;;;;;5035863;28;20029;-67
2023/03/18 07:22:45;;;;;;;15.52;8.10;;;32.10;99.90;;;;;;5035876;28;20581;-67
2023/03/18 07:25:12;;;;;;;12.43;6.85;;;32.10;99.90;;;;;;5035858;28;20033;-68
2023/03/18 07:27:39;;;;;;;14.13;6.75;;;32.10;99.90;;;;;;5035690;28;20060;-68
2023/03/18 07:30:08;;;;;;;12.93;6.10;;;32.10;99.90;;;;;;5035933;28;20442;-68
2023/03/18 07:32:36;;;;;;;14.70;7.85;;;32.10;99.90;;;;;;5035801;28;20026;-68
2023/03/18 07:35:04;;;;;;;19.77;8.98;;;32.10;99.90;;;;;;5035299;28;20034;-68
2023/03/18 07:37:32;;;;;;;27.98;16.02;;;32.20;99.90;;;;;;5035657;28;20108;-67
2023/03/18 07:39:59;;;;;;;23.70;14.07;;;32.20;99.90;;;;;;5040099;28;20593;-67
2023/03/18 07:42:25;;;;;;;25.45;15.55;;;32.20;99.90;;;;;;5055194;28;20025;-68
2023/03/18 07:44:52;;;;;;;32.65;20.13;;;32.20;99.90;;;;;;5055859;28;20067;-67
2023/03/18 07:47:19;;;;;;;27.02;15.02;;;32.20;99.90;;;;;;5055032;28;20029;-67
2023/03/18 07:49:46;;;;;;;15.18;7.95;;;32.20;99.90;;;;;;5055189;28;20033;-63
2023/03/18 07:52:13;;;;;;;16.15;8.88;;;32.20;99.90;;;;;;5055122;28;20059;-66
2023/03/18 07:54:40;;;;;;;13.55;7.78;;;32.10;99.90;;;;;;5055231;28;20478;-66
2023/03/18 07:57:06;;;;;;;14.63;7.40;;;32.10;99.90;;;;;;5055300;28;20052;-67
2023/03/18 07:59:33;;;;;;;21.23;9.07;;;32.10;99.90;;;;;;5055140;28;20453;-66
2023/03/18 08:02:00;;;;;;;11.70;8.15;;;32.20;99.90;;;;;;5054971;28;20031;-66
2023/03/18 08:04:27;;;;;;;17.13;8.50;;;32.30;99.90;;;;;;5053192;28;20396;-64
2023/03/18 08:06:54;;;;;;;11.05;7.50;;;32.40;99.90;;;;;;5052865;28;20064;-65
2023/03/18 08:09:21;;;;;;;17.23;8.00;;;32.40;99.90;;;;;;5052925;28;20036;-65
2023/03/18 08:11:47;;;;;;;10.43;6.80;;;32.40;99.90;;;;;;5052800;28;20029;-65
2023/03/18 08:14:14;;;;;;;13.68;6.95;;;32.40;99.90;;;;;;5053233;28;20096;-65
2023/03/18 08:16:40;;;;;;;14.27;7.97;;;32.40;99.90;;;;;;5053095;28;20064;-66
2023/03/18 08:19:07;;;;;;;17.27;9.35;;;32.40;99.90;;;;;;5051245;28;20025;-65
2023/03/18 08:21:34;;;;;;;11.85;7.80;;;32.50;99.90;;;;;;5051359;28;20112;-65
2023/03/18 08:24:00;;;;;;;13.68;7.18;;;32.50;99.90;;;;;;5051652;28;20053;-66
2023/03/18 08:26:27;;;;;;;17.88;8.90;;;32.50;99.90;;;;;;5052875;28;20028;-66
2023/03/18 08:28:54;;;;;;;15.43;9.50;;;32.50;99.90;;;;;;5053045;28;20033;-65
2023/03/18 08:31:20;;;;;;;18.20;9.23;;;32.50;99.90;;;;;;5053490;28;20064;-66
2023/03/18 08:33:48;;;;;;;18.25;8.77;;;32.50;99.90;;;;;;5053787;28;20466;-65
2023/03/18 08:36:15;;;;;;;18.70;10.73;;;32.50;99.90;;;;;;5054389;28;20098;-66
2023/03/18 08:38:42;;;;;;;16.80;9.50;;;32.50;99.90;;;;;;5054474;28;20413;-66
2023/03/18 08:41:08;;;;;;;11.13;6.97;;;32.40;99.90;;;;;;5054306;28;20059;-66
2023/03/18 08:43:35;;;;;;;19.38;8.75;;;32.40;99.90;;;;;;5054330;28;20029;-66
2023/03/18 08:46:02;;;;;;;15.45;8.90;;;32.40;99.90;;;;;;5054489;28;20472;-66
2023/03/18 08:48:29;;;;;;;18.30;10.60;;;32.40;99.90;;;;;;5053991;28;20548;-66
2023/03/18 08:50:57;;;;;;;26.40;16.88;;;32.40;99.90;;;;;;5054219;28;20057;-66
2023/03/18 08:53:23;;;;;;;69.72;49.45;;;32.40;99.90;;;;;;5053524;28;20048;-66
2023/03/18 08:55:50;;;;;;;36.17;23.13;;;32.40;99.90;;;;;;5053918;28;20025;-66
2023/03/18 08:58:17;;;;;;;18.92;10.82;;;32.30;99.90;;;;;;5054321;28;20386;-66
2023/03/18 09:00:44;;;;;;;18.15;10.18;;;32.30;99.90;;;;;;5054176;28;20025;-66
2023/03/18 09:03:10;;;;;;;27.17;12.43;;;32.30;99.90;;;;;;5053905;28;20025;-65
2023/03/18 09:05:37;;;;;;;21.42;11.00;;;32.30;99.90;;;;;;5053904;28;20031;-66
2023/03/18 09:08:04;;;;;;;29.48;20.77;;;32.30;99.90;;;;;;5053840;28;20071;-66
2023/03/18 09:10:31;;;;;;;22.33;15.77;;;32.30;99.90;;;;;;5053678;28;20039;-66
2023/03/18 09:12:58;;;;;;;35.70;26.63;;;32.40;99.90;;;;;;5053711;28;20075;-66
2023/03/18 09:15:26;;;;;;;41.67;28.38;;;32.40;99.90;;;;;;5053666;28;20104;-66
2023/03/18 09:17:53;;;;;;;33.20;21.10;;;32.40;99.90;;;;;;5053659;28;20056;-65
2023/03/18 09:20:20;;;;;;;33.15;21.85;;;32.50;99.90;;;;;;5053709;28;20037;-66
2023/03/18 09:22:47;;;;;;;17.15;10.18;;;32.50;99.90;;;;;;5053505;28;20044;-66
2023/03/18 09:25:15;;;;;;;19.10;10.63;;;32.50;99.90;;;;;;5053426;28;20115;-66
2023/03/18 09:27:42;;;;;;;30.67;19.17;;;32.50;99.90;;;;;;5053734;28;20063;-66
2023/03/18 09:30:09;;;;;;;36.88;20.05;;;32.50;99.90;;;;;;5053481;28;20021;-66
2023/03/18 09:32:36;;;;;;;54.97;40.60;;;32.50;99.90;;;;;;5053791;28;20017;-65
2023/03/18 09:35:04;;;;;;;41.13;21.48;;;32.50;99.90;;;;;;5053473;28;20413;-66
2023/03/18 09:37:30;;;;;;;43.72;29.00;;;32.50;99.90;;;;;;5053366;28;20096;-67
2023/03/18 09:39:57;;;;;;;33.72;23.23;;;32.50;99.90;;;;;;5053314;28;20474;-66
2023/03/18 09:42:46;;;;;;;32.45;19.52;;;32.60;99.90;;;;;;5053723;28;20033;-66
2023/03/18 09:45:51;;;;;;;31.95;22.50;;;32.60;99.90;;;;;;5053523;28;20478;-67
2023/03/18 09:48:34;;;;;;;30.33;23.70;;;32.70;99.90;;;;;;5053226;28;20029;-66
2023/03/18 09:51:15;;;;;;;31.10;24.08;;;32.70;99.90;;;;;;5053266;28;20025;-66
2023/03/18 09:53:47;;;;;;;28.80;17.92;;;32.60;99.90;;;;;;5053002;28;20025;-67
2023/03/18 09:56:20;;;;;;;45.70;33.25;;;32.60;99.90;;;;;;5053044;28;20025;-66
2023/03/18 09:59:03;;;;;;;53.67;40.80;;;32.70;99.90;;;;;;5053032;28;20112;-66
2023/03/18 10:01:33;;;;;;;22.15;13.07;;;32.70;99.90;;;;;;5053017;28;20389;-66
2023/03/18 10:04:01;;;;;;;17.98;10.68;;;32.60;99.90;;;;;;5052834;28;20029;-66
2023/03/18 10:06:28;;;;;;;20.40;11.55;;;32.60;99.90;;;;;;5052839;28;20021;-66
2023/03/18 10:09:07;;;;;;;24.77;13.05;;;32.60;99.90;;;;;;5052890;28;20051;-67
2023/03/18 10:11:46;;;;;;;25.10;12.93;;;32.60;99.90;;;;;;5052943;28;20032;-67
2023/03/18 10:14:31;;;;;;;23.05;14.45;;;32.50;99.90;;;;;;5052929;28;20423;-67
2023/03/18 10:17:11;;;;;;;38.97;25.27;;;32.50;99.90;;;;;;5052659;28;20017;-67
2023/03/18 10:19:59;;;;;;;26.65;15.20;;;32.50;99.90;;;;;;5052940;28;20512;-66
2023/03/18 10:22:49;;;;;;;36.85;24.38;;;32.40;99.90;;;;;;5052612;28;20056;-66
2023/03/18 10:25:34;;;;;;;29.08;17.38;;;32.40;99.90;;;;;;5052655;28;20029;-65
2023/03/18 10:28:10;;;;;;;172.68;125.45;;;32.40;99.90;;;;;;5052507;28;20021;-66
2023/03/18 10:31:00;;;;;;;82.95;54.58;;;32.40;99.90;;;;;;5037526;28;20025;-66
2023/03/18 10:33:40;;;;;;;151.88;100.97;;;32.40;99.90;;;;;;5052303;28;20021;-66
2023/03/18 10:36:15;;;;;;;50.55;32.30;;;32.30;99.90;;;;;;5049717;28;20033;-66
2023/03/18 10:38:48;;;;;;;42.20;24.50;;;32.20;99.90;;;;;;5052310;28;20033;-66
2023/03/18 10:41:23;;;;;;;33.70;21.13;;;32.20;99.90;;;;;;5052203;28;20021;-66
2023/03/18 10:43:54;;;;;;;32.45;19.45;;;32.20;99.90;;;;;;5052673;28;20036;-66
2023/03/18 10:46:22;;;;;;;37.90;20.80;;;32.20;99.90;;;;;;5052541;28;20021;-66
2023/03/18 10:48:56;;;;;;;31.88;18.45;;;32.10;99.90;;;;;;5052408;28;20047;-65
2023/03/18 10:51:40;;;;;;;34.20;20.70;;;32.00;99.90;;;;;;5052680;28;20040;-66
2023/03/18 10:54:12;;;;;;;45.80;28.33;;;32.00;99.90;;;;;;5052652;28;20021;-67
2023/03/18 10:56:39;;;;;;;53.40;31.33;;;32.00;99.90;;;;;;5052591;28;20027;-67
2023/03/18 10:59:17;;;;;;;38.22;23.35;;;32.00;99.90;;;;;;5052501;28;20033;-67
2023/03/18 11:01:50;;;;;;;42.10;21.33;;;31.90;99.90;;;;;;5052639;28;20422;-66
2023/03/18 11:04:20;;;;;;;39.83;22.20;;;31.80;99.90;;;;;;5052431;28;20147;-66
2023/03/18 11:06:48;;;;;;;41.42;22.40;;;31.70;99.90;;;;;;5052467;28;20623;-66
2023/03/18 11:09:19;;;;;;;37.10;21.90;;;31.70;99.90;;;;;;5052555;28;20114;-66
2023/03/18 11:11:48;;;;;;;40.28;23.90;;;31.50;99.90;;;;;;5052382;28;20017;-67
2023/03/18 11:14:19;;;;;;;52.33;27.88;;;31.40;99.90;;;;;;5052511;28;20021;-67
2023/03/18 11:16:56;;;;;;;57.65;32.05;;;31.40;99.90;;;;;;5055135;28;20025;-67
2023/03/18 11:19:38;;;;;;;51.83;29.63;;;31.40;99.90;;;;;;5056048;28;20087;-67
2023/03/18 11:22:13;;;;;;;;;;;31.30;99.90;;;;;;5056380;28;20053;-65
2023/03/18 11:24:41;;;;;;;50.55;28.52;;;31.20;99.90;;;;;;5055944;28;19960;-67
2023/03/18 11:27:17;;;;;;;57.65;33.75;;;31.10;99.90;;;;;;5055822;28;20035;-66
2023/03/18 11:29:54;;;;;;;57.13;33.20;;;31.00;99.90;;;;;;5055559;28;20021;-67
2023/03/18 11:32:49;;;;;;;52.20;23.55;;;31.00;99.90;;;;;;5055782;28;20047;-67
2023/03/18 11:35:21;;;;;;;40.00;23.88;;;30.90;99.90;;;;;;5054611;28;20029;-67
2023/03/18 11:37:48;;;;;;;46.90;26.98;;;30.80;99.90;;;;;;5055985;28;20025;-67
2023/03/18 11:40:17;;;;;;;35.10;22.98;;;30.80;99.90;;;;;;5055868;28;20099;-67
2023/03/18 11:42:46;;;;;;;42.47;22.83;;;30.80;99.90;;;;;;5055487;28;20100;-67
2023/03/18 11:45:26;;;;;;;36.90;20.80;;;30.80;99.90;;;;;;5055540;28;20017;-67
2023/03/18 11:47:53;;;;;;;43.72;21.90;;;30.70;99.90;;;;;;5055351;28;20389;-67
2023/03/18 11:50:24;;;;;;;32.40;20.42;;;30.70;99.90;;;;;;5055381;28;20018;-67
2023/03/18 11:52:51;;;;;;;44.58;24.15;;;30.60;99.90;;;;;;5055209;28;20029;-66
2023/03/18 11:55:26;;;;;;;43.80;23.40;;;30.60;99.90;;;;;;5055353;28;20029;-67
2023/03/18 11:58:24;;;;;;;41.25;22.75;;;30.60;99.90;;;;;;5055251;28;20462;-65
2023/03/18 12:01:09;;;;;;;44.00;21.98;;;30.40;99.90;;;;;;5055198;28;20081;-67
2023/03/18 12:03:39;;;;;;;41.58;22.08;;;30.30;99.90;;;;;;5055388;28;20025;-67
2023/03/18 12:06:30;;;;;;;32.97;19.42;;;30.20;99.90;;;;;;5055286;28;20474;-67
2023/03/18 12:09:24;;;;;;;47.67;23.25;;;30.20;99.90;;;;;;5054962;28;20040;-66
2023/03/18 12:12:07;;;;;;;36.65;21.17;;;30.10;99.90;;;;;;5054857;28;20029;-66
2023/03/18 12:15:14;;;;;;;32.58;20.17;;;30.10;99.90;;;;;;5055009;28;20029;-67
2023/03/18 12:17:46;;;;;;;36.85;19.75;;;30.10;99.90;;;;;;5053853;28;20382;-68
2023/03/18 12:20:12;;;;;;;;;;;30.00;99.90;;;;;;5055100;28;20523;-68
2023/03/18 12:22:40;;;;;;;31.63;19.05;;;30.00;99.90;;;;;;5054717;28;19912;-68
2023/03/18 12:25:43;;;;;;;31.00;18.67;;;30.00;99.90;;;;;;5054817;28;20066;-68
2023/03/18 12:28:16;;;;;;;33.92;18.60;;;30.10;99.90;;;;;;5054703;28;20029;-68
2023/03/18 12:31:09;;;;;;;38.53;18.55;;;30.00;99.90;;;;;;5054617;28;20018;-68
2023/03/18 12:33:44;;;;;;;30.30;17.85;;;30.00;99.90;;;;;;5047273;28;20044;-68
2023/03/18 12:36:18;;;;;;;31.95;18.88;;;29.90;99.90;;;;;;5054574;28;20092;-67
2023/03/18 12:39:07;;;;;;;42.40;21.63;;;29.90;99.90;;;;;;5054423;28;20025;-67
2023/03/18 12:41:55;;;;;;;41.47;18.58;;;29.80;99.90;;;;;;5047828;28;20098;-67